sensor_id;sensor_type;location;lat;lon;timestamp;pressure;altitude;pressure_sealevel;temperature;humidity
21760;BME280;11041;50.854;20.580;2023-12-29T00:01:17;98619.81;;;1.69;100.00
21760;BME280;11041;50.854;20.580;2023-12-29T00:03:44;98625.03;;;1.81;100.00
21760;BME280;11041;50.854;20.580;2023-12-29T00:06:11;98614.78;;;1.88;100.00
21760;BME280;11041;50.854;20.580;2023-12-29T00:08:38;98612.13;;;1.98;100.00
21760;BME280;11041;50.854;20.580;2023-12-29T00:11:05;98618.41;;;2.09;100.00
21760;BME280;11041;50.854;20.580;2023-12-29T00:13:32;98612.50;;;2.17;100.00
21760;BME280;11041;50.854;20.580;2023-12-29T00:16:03;98626.66;;;2.29;100.00
21760;BME280;11041;50.854;20.580;2023-12-29T00:18:30;98625.06;;;2.33;100.00
21760;BME280;11041;50.854;20.580;2023-12-29T00:20:58;98612.88;;;2.41;100.00
21760;BME280;11041;50.854;20.580;2023-12-29T00:23:24;98614.53;;;2.52;100.00
21760;BME280;11041;50.854;20.580;2023-12-29T00:25:54;98607.53;;;2.62;100.00
21760;BME280;11041;50.854;20.580;2023-12-29T00:28:20;98607.56;;;2.72;100.00
21760;BME280;11041;50.854;20.580;2023-12-29T00:30:47;98597.53;;;2.83;100.00
21760;BME280;11041;50.854;20.580;2023-12-29T00:33:13;98601.91;;;2.94;100.00
21760;BME280;11041;50.854;20.580;2023-12-29T00:35:40;98594.03;;;3.03;100.00
21760;BME280;11041;50.854;20.580;2023-12-29T00:38:06;98584.53;;;3.05;100.00
21760;BME280;11041;50.854;20.580;2023-12-29T00:40:34;98582.91;;;3.09;100.00
21760;BME280;11041;50.854;20.580;2023-12-29T00:43:02;98590.00;;;3.10;100.00
21760;BME280;11041;50.854;20.580;2023-12-29T00:45:29;98581.56;;;3.12;100.00
21760;BME280;11041;50.854;20.580;2023-12-29T00:47:59;98576.94;;;3.12;100.00
21760;BME280;11041;50.854;20.580;2023-12-29T00:50:27;98583.47;;;3.11;100.00
21760;BME280;11041;50.854;20.580;2023-12-29T00:52:54;98582.38;;;3.07;100.00
21760;BME280;11041;50.854;20.580;2023-12-29T00:55:22;98588.34;;;3.04;100.00
21760;BME280;11041;50.854;20.580;2023-12-29T00:57:51;98588.34;;;2.99;100.00
21760;BME280;11041;50.854;20.580;2023-12-29T01:00:20;98587.25;;;2.95;100.00
21760;BME280;11041;50.854;20.580;2023-12-29T01:02:47;98583.44;;;2.91;100.00
21760;BME280;11041;50.854;20.580;2023-12-29T01:05:18;98588.34;;;2.89;100.00
21760;BME280;11041;50.854;20.580;2023-12-29T01:07:47;98586.69;;;2.93;100.00
21760;BME280;11041;50.854;20.580;2023-12-29T01:10:14;98587.25;;;2.95;100.00
21760;BME280;11041;50.854;20.580;2023-12-29T01:12:41;98582.91;;;2.94;100.00
21760;BME280;11041;50.854;20.580;2023-12-29T01:15:08;98575.03;;;2.92;100.00
21760;BME280;11041;50.854;20.580;2023-12-29T01:17:39;98588.84;;;2.91;100.00
21760;BME280;11041;50.854;20.580;2023-12-29T01:20:07;98580.72;;;2.91;100.00
21760;BME280;11041;50.854;20.580;2023-12-29T01:22:35;98585.63;;;2.89;100.00
21760;BME280;11041;50.854;20.580;2023-12-29T01:25:03;98580.19;;;2.89;100.00
21760;BME280;11041;50.854;20.580;2023-12-29T01:27:31;98573.13;;;2.88;100.00
21760;BME280;11041;50.854;20.580;2023-12-29T01:29:59;98575.03;;;2.92;100.00
21760;BME280;11041;50.854;20.580;2023-12-29T01:32:26;98572.59;;;2.96;100.00
21760;BME280;11041;50.854;20.580;2023-12-29T01:34:53;98558.19;;;2.95;100.00
21760;BME280;11041;50.854;20.580;2023-12-29T01:37:19;98557.94;;;2.97;100.00
21760;BME280;11041;50.854;20.580;2023-12-29T01:39:46;98561.19;;;2.99;100.00
21760;BME280;11041;50.854;20.580;2023-12-29T01:42:15;98563.91;;;2.99;100.00
21760;BME280;11041;50.854;20.580;2023-12-29T01:44:46;98571.50;;;3.02;100.00
21760;BME280;11041;50.854;20.580;2023-12-29T01:47:18;98567.72;;;3.03;100.00
21760;BME280;11041;50.854;20.580;2023-12-29T01:49:50;98571.50;;;3.07;100.00
21760;BME280;11041;50.854;20.580;2023-12-29T01:52:18;98570.16;;;3.10;100.00
21760;BME280;11041;50.854;20.580;2023-12-29T01:54:50;98562.31;;;3.13;100.00
21760;BME280;11041;50.854;20.580;2023-12-29T01:57:19;98559.84;;;3.17;100.00
21760;BME280;11041;50.854;20.580;2023-12-29T01:59:48;98553.59;;;3.16;100.00
21760;BME280;11041;50.854;20.580;2023-12-29T02:02:16;98554.69;;;3.20;100.00
21760;BME280;11041;50.854;20.580;2023-12-29T02:04:45;98554.41;;;3.22;100.00
21760;BME280;11041;50.854;20.580;2023-12-29T02:07:13;98554.94;;;3.24;100.00
21760;BME280;11041;50.854;20.580;2023-12-29T02:09:41;98550.06;;;3.26;100.00
21760;BME280;11041;50.854;20.580;2023-12-29T02:12:08;98535.69;;;3.26;100.00
21760;BME280;11041;50.854;20.580;2023-12-29T02:14:35;98532.41;;;3.29;100.00
21760;BME280;11041;50.854;20.580;2023-12-29T02:17:17;98536.78;;;3.30;100.00
21760;BME280;11041;50.854;20.580;2023-12-29T02:19:49;98537.28;;;3.32;100.00
21760;BME280;11041;50.854;20.580;2023-12-29T02:22:18;98538.69;;;3.34;100.00
21760;BME280;11041;50.854;20.580;2023-12-29T02:24:49;98537.31;;;3.37;100.00
21760;BME280;11041;50.854;20.580;2023-12-29T02:27:46;98524.78;;;3.41;100.00
21760;BME280;11041;50.854;20.580;2023-12-29T02:30:25;98528.06;;;3.43;100.00
21760;BME280;11041;50.854;20.580;2023-12-29T02:33:01;98527.00;;;3.44;100.00
21760;BME280;11041;50.854;20.580;2023-12-29T02:35:39;98519.09;;;3.42;100.00
21760;BME280;11041;50.854;20.580;2023-12-29T02:38:06;98516.66;;;3.41;100.00
21760;BME280;11041;50.854;20.580;2023-12-29T02:40:35;98521.28;;;3.40;100.00
21760;BME280;11041;50.854;20.580;2023-12-29T02:43:04;98512.03;;;3.41;100.00
21760;BME280;11041;50.854;20.580;2023-12-29T02:45:31;98492.75;;;3.43;100.00
21760;BME280;11041;50.854;20.580;2023-12-29T02:47:58;98504.41;;;3.44;100.00
21760;BME280;11041;50.854;20.580;2023-12-29T02:50:25;98500.63;;;3.45;100.00
21760;BME280;11041;50.854;20.580;2023-12-29T02:52:52;98499.81;;;3.44;100.00
21760;BME280;11041;50.854;20.580;2023-12-29T02:55:19;98503.34;;;3.39;100.00
21760;BME280;11041;50.854;20.580;2023-12-29T02:57:46;98505.78;;;3.36;100.00
21760;BME280;11041;50.854;20.580;2023-12-29T03:00:13;98503.63;;;3.33;100.00
21760;BME280;11041;50.854;20.580;2023-12-29T03:02:41;98509.06;;;3.28;100.00
21760;BME280;11041;50.854;20.580;2023-12-29T03:05:08;98502.31;;;3.20;100.00
21760;BME280;11041;50.854;20.580;2023-12-29T03:07:35;98502.56;;;3.13;100.00
21760;BME280;11041;50.854;20.580;2023-12-29T03:10:02;98496.88;;;3.05;100.00
21760;BME280;11041;50.854;20.580;2023-12-29T03:12:30;98488.72;;;2.94;100.00
21760;BME280;11041;50.854;20.580;2023-12-29T03:15:00;98496.03;;;2.84;100.00
21760;BME280;11041;50.854;20.580;2023-12-29T03:17:27;98495.22;;;2.73;100.00
21760;BME280;11041;50.854;20.580;2023-12-29T03:19:57;98488.44;;;2.65;100.00
21760;BME280;11041;50.854;20.580;2023-12-29T03:22:23;98493.88;;;2.60;100.00
21760;BME280;11041;50.854;20.580;2023-12-29T03:24:52;98480.81;;;2.57;100.00
21760;BME280;11041;50.854;20.580;2023-12-29T03:27:23;98480.31;;;2.60;100.00
21760;BME280;11041;50.854;20.580;2023-12-29T03:29:49;98487.34;;;2.61;100.00
21760;BME280;11041;50.854;20.580;2023-12-29T03:32:16;98478.16;;;2.62;100.00
21760;BME280;11041;50.854;20.580;2023-12-29T03:34:44;98474.34;;;2.63;100.00
21760;BME280;11041;50.854;20.580;2023-12-29T03:37:10;98473.53;;;2.58;100.00
21760;BME280;11041;50.854;20.580;2023-12-29T03:39:37;98471.63;;;2.53;100.00
21760;BME280;11041;50.854;20.580;2023-12-29T03:42:04;98475.94;;;2.49;100.00
21760;BME280;11041;50.854;20.580;2023-12-29T03:44:33;98472.13;;;2.45;100.00
21760;BME280;11041;50.854;20.580;2023-12-29T03:47:04;98470.78;;;2.37;100.00
21760;BME280;11041;50.854;20.580;2023-12-29T03:49:33;98467.50;;;2.30;100.00
21760;BME280;11041;50.854;20.580;2023-12-29T03:52:03;98465.59;;;2.25;100.00
21760;BME280;11041;50.854;20.580;2023-12-29T03:54:34;98461.28;;;2.24;100.00
21760;BME280;11041;50.854;20.580;2023-12-29T03:57:08;98460.47;;;2.24;100.00
21760;BME280;11041;50.854;20.580;2023-12-29T03:59:40;98456.09;;;2.28;100.00
21760;BME280;11041;50.854;20.580;2023-12-29T04:02:09;98457.75;;;2.34;100.00
21760;BME280;11041;50.854;20.580;2023-12-29T04:04:42;98455.84;;;2.40;100.00
21760;BME280;11041;50.854;20.580;2023-12-29T04:07:14;98463.19;;;2.54;100.00
21760;BME280;11041;50.854;20.580;2023-12-29T04:09:42;98458.06;;;2.78;100.00
21760;BME280;11041;50.854;20.580;2023-12-29T04:12:11;98461.88;;;3.03;100.00
21760;BME280;11041;50.854;20.580;2023-12-29T04:14:37;98470.22;;;3.22;100.00
21760;BME280;11041;50.854;20.580;2023-12-29T04:17:08;98464.78;;;3.42;100.00
21760;BME280;11041;50.854;20.580;2023-12-29T04:19:42;98451.41;;;3.61;100.00
21760;BME280;11041;50.854;20.580;2023-12-29T04:22:15;98451.88;;;3.79;100.00
21760;BME280;11041;50.854;20.580;2023-12-29T04:24:45;98450.47;;;3.92;100.00
21760;BME280;11041;50.854;20.580;2023-12-29T04:27:13;98455.03;;;4.01;100.00
21760;BME280;11041;50.854;20.580;2023-12-29T04:29:44;98459.94;;;4.04;100.00
21760;BME280;11041;50.854;20.580;2023-12-29T04:32:14;98461.25;;;4.12;100.00
21760;BME280;11041;50.854;20.580;2023-12-29T04:34:46;98465.03;;;4.11;100.00
21760;BME280;11041;50.854;20.580;2023-12-29T04:37:17;98462.88;;;4.13;100.00
21760;BME280;11041;50.854;20.580;2023-12-29T04:39:47;98460.97;;;4.14;100.00
21760;BME280;11041;50.854;20.580;2023-12-29T04:42:15;98456.06;;;4.16;100.00
21760;BME280;11041;50.854;20.580;2023-12-29T04:44:48;98454.16;;;4.16;100.00
21760;BME280;11041;50.854;20.580;2023-12-29T04:47:14;98457.19;;;4.10;100.00
21760;BME280;11041;50.854;20.580;2023-12-29T04:49:42;98459.94;;;4.04;100.00
21760;BME280;11041;50.854;20.580;2023-12-29T04:52:08;98445.00;;;4.02;100.00
21760;BME280;11041;50.854;20.580;2023-12-29T04:54:39;98445.81;;;4.02;100.00
21760;BME280;11041;50.854;20.580;2023-12-29T04:57:06;98436.56;;;3.98;100.00
21760;BME280;11041;50.854;20.580;2023-12-29T04:59:40;98445.56;;;3.94;100.00
21760;BME280;11041;50.854;20.580;2023-12-29T05:02:09;98444.19;;;3.96;100.00
21760;BME280;11041;50.854;20.580;2023-12-29T05:04:42;98442.03;;;3.93;100.00
21760;BME280;11041;50.854;20.580;2023-12-29T05:07:13;98443.16;;;3.92;100.00
21760;BME280;11041;50.854;20.580;2023-12-29T05:09:40;98446.97;;;3.86;100.00
21760;BME280;11041;50.854;20.580;2023-12-29T05:12:08;98448.56;;;3.87;100.00
21760;BME280;11041;50.854;20.580;2023-12-29T05:14:36;98445.06;;;3.87;100.00
21760;BME280;11041;50.854;20.580;2023-12-29T05:17:07;98443.41;;;3.91;100.00
21760;BME280;11041;50.854;20.580;2023-12-29T05:19:35;98438.53;;;3.88;100.00
21760;BME280;11041;50.854;20.580;2023-12-29T05:22:01;98433.91;;;3.88;100.00
21760;BME280;11041;50.854;20.580;2023-12-29T05:24:34;98431.22;;;3.83;100.00
21760;BME280;11041;50.854;20.580;2023-12-29T05:27:04;98437.72;;;3.82;100.00
21760;BME280;11041;50.854;20.580;2023-12-29T05:29:33;98432.88;;;3.79;100.00
21760;BME280;11041;50.854;20.580;2023-12-29T05:32:03;98434.81;;;3.73;100.00
21760;BME280;11041;50.854;20.580;2023-12-29T05:34:38;98422.56;;;3.76;100.00
21760;BME280;11041;50.854;20.580;2023-12-29T05:37:07;98411.16;;;3.74;100.00
21760;BME280;11041;50.854;20.580;2023-12-29T05:39:43;98408.69;;;3.72;100.00
21760;BME280;11041;50.854;20.580;2023-12-29T05:42:10;98420.94;;;3.70;100.00
21760;BME280;11041;50.854;20.580;2023-12-29T05:44:42;98420.66;;;3.71;100.00
21760;BME280;11041;50.854;20.580;2023-12-29T05:47:11;98428.28;;;3.69;100.00
21760;BME280;11041;50.854;20.580;2023-12-29T05:49:38;98424.19;;;3.72;100.00
21760;BME280;11041;50.854;20.580;2023-12-29T05:52:08;98419.88;;;3.71;100.00
21760;BME280;11041;50.854;20.580;2023-12-29T05:54:37;98420.38;;;3.73;100.00
21760;BME280;11041;50.854;20.580;2023-12-29T05:57:05;98409.81;;;3.71;100.00
21760;BME280;11041;50.854;20.580;2023-12-29T05:59:34;98405.75;;;3.69;100.00
21760;BME280;11041;50.854;20.580;2023-12-29T06:02:06;98410.63;;;3.67;100.00
21760;BME280;11041;50.854;20.580;2023-12-29T06:04:36;98416.06;;;3.67;100.00
21760;BME280;11041;50.854;20.580;2023-12-29T06:07:06;98417.97;;;3.66;100.00
21760;BME280;11041;50.854;20.580;2023-12-29T06:09:33;98416.34;;;3.65;100.00
21760;BME280;11041;50.854;20.580;2023-12-29T06:12:00;98429.38;;;3.68;100.00
21760;BME280;11041;50.854;20.580;2023-12-29T06:14:35;98414.69;;;3.69;100.00
21760;BME280;11041;50.854;20.580;2023-12-29T06:17:04;98423.09;;;3.78;100.00
21760;BME280;11041;50.854;20.580;2023-12-29T06:19:35;98420.88;;;3.85;100.00
21760;BME280;11041;50.854;20.580;2023-12-29T06:22:01;98418.38;;;3.94;100.00
21760;BME280;11041;50.854;20.580;2023-12-29T06:24:28;98410.19;;;3.99;100.00
21760;BME280;11041;50.854;20.580;2023-12-29T06:26:55;98428.34;;;4.09;100.00
21760;BME280;11041;50.854;20.580;2023-12-29T06:29:27;98434.28;;;4.16;100.00
21760;BME280;11041;50.854;20.580;2023-12-29T06:31:57;98438.63;;;4.22;100.00
21760;BME280;11041;50.854;20.580;2023-12-29T06:34:26;98436.44;;;4.24;100.00
21760;BME280;11041;50.854;20.580;2023-12-29T06:36:57;98433.16;;;4.27;100.00
21760;BME280;11041;50.854;20.580;2023-12-29T06:39:29;98427.44;;;4.29;100.00
21760;BME280;11041;50.854;20.580;2023-12-29T06:41:56;98427.13;;;4.30;100.00
21760;BME280;11041;50.854;20.580;2023-12-29T06:44:22;98440.19;;;4.33;100.00
21760;BME280;11041;50.854;20.580;2023-12-29T06:46:52;98430.34;;;4.37;100.00
21760;BME280;11041;50.854;20.580;2023-12-29T06:49:22;98442.31;;;4.41;100.00
21760;BME280;11041;50.854;20.580;2023-12-29T06:51:49;98430.03;;;4.44;100.00
21760;BME280;11041;50.854;20.580;2023-12-29T06:54:19;98426.75;;;4.47;100.00
21760;BME280;11041;50.854;20.580;2023-12-29T06:56:53;98426.47;;;4.48;100.00
21760;BME280;11041;50.854;20.580;2023-12-29T06:59:26;98427.81;;;4.51;100.00
21760;BME280;11041;50.854;20.580;2023-12-29T07:01:54;98437.06;;;4.55;100.00
21760;BME280;11041;50.854;20.580;2023-12-29T07:04:21;98424.47;;;4.59;100.00
21760;BME280;11041;50.854;20.580;2023-12-29T07:06:47;98416.81;;;4.66;100.00
21760;BME280;11041;50.854;20.580;2023-12-29T07:09:14;98436.69;;;4.67;100.00
21760;BME280;11041;50.854;20.580;2023-12-29T07:11:41;98421.41;;;4.71;100.00
21760;BME280;11041;50.854;20.580;2023-12-29T07:14:09;98421.13;;;4.73;100.00
21760;BME280;11041;50.854;20.580;2023-12-29T07:16:35;98417.78;;;4.81;100.00
21760;BME280;11041;50.854;20.580;2023-12-29T07:19:02;98422.13;;;4.82;100.00
21760;BME280;11041;50.854;20.580;2023-12-29T07:21:32;98432.97;;;4.87;100.00
21760;BME280;11041;50.854;20.580;2023-12-29T07:24:03;98421.81;;;4.88;99.79
21760;BME280;11041;50.854;20.580;2023-12-29T07:26:29;98423.69;;;4.93;98.93
21760;BME280;11041;50.854;20.580;2023-12-29T07:28:56;98438.31;;;4.97;98.60
21760;BME280;11041;50.854;20.580;2023-12-29T07:31:24;98429.31;;;5.02;98.64
21760;BME280;11041;50.854;20.580;2023-12-29T07:33:53;98423.53;;;5.08;99.34
21760;BME280;11041;50.854;20.580;2023-12-29T07:36:22;98424.88;;;5.11;98.64
21760;BME280;11041;50.854;20.580;2023-12-29T07:38:49;98426.44;;;5.17;97.47
21760;BME280;11041;50.854;20.580;2023-12-29T07:41:16;98418.56;;;5.16;97.67
21760;BME280;11041;50.854;20.580;2023-12-29T07:43:44;98425.63;;;5.17;97.51
21760;BME280;11041;50.854;20.580;2023-12-29T07:46:10;98419.56;;;5.25;97.78
21760;BME280;11041;50.854;20.580;2023-12-29T07:48:37;98419.56;;;5.25;97.14
21760;BME280;11041;50.854;20.580;2023-12-29T07:51:06;98416.25;;;5.28;96.96
21760;BME280;11041;50.854;20.580;2023-12-29T07:53:32;98421.91;;;5.31;96.67
21760;BME280;11041;50.854;20.580;2023-12-29T07:56:00;98418.06;;;5.38;97.46
21760;BME280;11041;50.854;20.580;2023-12-29T07:58:27;98426.81;;;5.34;96.52
21760;BME280;11041;50.854;20.580;2023-12-29T08:00:57;98420.50;;;5.39;96.71
21760;BME280;11041;50.854;20.580;2023-12-29T08:03:24;98421.03;;;5.41;96.63
21760;BME280;11041;50.854;20.580;2023-12-29T08:05:50;98416.31;;;5.47;96.17
21760;BME280;11041;50.854;20.580;2023-12-29T08:08:19;98411.09;;;5.50;96.29
21760;BME280;11041;50.854;20.580;2023-12-29T08:10:48;98419.25;;;5.50;96.34
21760;BME280;11041;50.854;20.580;2023-12-29T08:13:16;98423.63;;;5.51;96.01
21760;BME280;11041;50.854;20.580;2023-12-29T08:15:46;98424.72;;;5.50;96.42
21760;BME280;11041;50.854;20.580;2023-12-29T08:18:17;98411.41;;;5.49;95.98
21760;BME280;11041;50.854;20.580;2023-12-29T08:20:51;98419.50;;;5.54;95.77
21760;BME280;11041;50.854;20.580;2023-12-29T08:23:21;98425.75;;;5.54;96.29
21760;BME280;11041;50.854;20.580;2023-12-29T08:25:50;98422.97;;;5.60;95.80
21760;BME280;11041;50.854;20.580;2023-12-29T08:28:18;98417.31;;;5.56;95.73
21760;BME280;11041;50.854;20.580;2023-12-29T08:30:47;98418.13;;;5.57;96.15
21760;BME280;11041;50.854;20.580;2023-12-29T08:33:14;98409.06;;;5.61;96.16
21760;BME280;11041;50.854;20.580;2023-12-29T08:35:43;98417.78;;;5.63;96.07
21760;BME280;11041;50.854;20.580;2023-12-29T08:38:15;98411.44;;;5.68;96.26
21760;BME280;11041;50.854;20.580;2023-12-29T08:40:43;98419.56;;;5.73;96.01
21760;BME280;11041;50.854;20.580;2023-12-29T08:43:13;98417.63;;;5.73;95.96
21760;BME280;11041;50.854;20.580;2023-12-29T08:45:46;98423.56;;;5.81;95.69
21760;BME280;11041;50.854;20.580;2023-12-29T08:48:14;98414.44;;;5.90;95.55
21760;BME280;11041;50.854;20.580;2023-12-29T08:50:41;98417.13;;;5.95;95.48
21760;BME280;11041;50.854;20.580;2023-12-29T08:53:09;98424.41;;;6.00;95.27
21760;BME280;11041;50.854;20.580;2023-12-29T08:55:39;98424.13;;;6.02;94.88
21760;BME280;11041;50.854;20.580;2023-12-29T08:58:06;98421.91;;;6.04;95.13
21760;BME280;11041;50.854;20.580;2023-12-29T09:00:36;98424.59;;;6.09;94.67
21760;BME280;11041;50.854;20.580;2023-12-29T09:03:05;98417.72;;;6.11;94.87
21760;BME280;11041;50.854;20.580;2023-12-29T09:05:38;98420.16;;;6.13;95.17
21760;BME280;11041;50.854;20.580;2023-12-29T09:08:06;98414.94;;;6.16;95.07
21760;BME280;11041;50.854;20.580;2023-12-29T09:10:37;98410.50;;;6.21;95.15
21760;BME280;11041;50.854;20.580;2023-12-29T09:13:05;98412.66;;;6.24;95.39
21760;BME280;11041;50.854;20.580;2023-12-29T09:15:36;98413.69;;;6.28;95.20
21760;BME280;11041;50.854;20.580;2023-12-29T09:18:05;98415.28;;;6.29;95.41
21760;BME280;11041;50.854;20.580;2023-12-29T09:20:36;98429.97;;;6.33;95.11
21760;BME280;11041;50.854;20.580;2023-12-29T09:23:04;98425.53;;;6.37;95.65
21760;BME280;11041;50.854;20.580;2023-12-29T09:25:36;98423.31;;;6.39;95.20
21760;BME280;11041;50.854;20.580;2023-12-29T09:28:05;98412.13;;;6.40;95.55
21760;BME280;11041;50.854;20.580;2023-12-29T09:30:34;98417.78;;;6.44;95.43
21760;BME280;11041;50.854;20.580;2023-12-29T09:33:02;98421.03;;;6.46;95.61
21760;BME280;11041;50.854;20.580;2023-12-29T09:35:31;98422.69;;;6.47;95.47
21760;BME280;11041;50.854;20.580;2023-12-29T09:38:01;98423.16;;;6.49;95.64
21760;BME280;11041;50.854;20.580;2023-12-29T09:40:33;98414.09;;;6.54;95.79
21760;BME280;11041;50.854;20.580;2023-12-29T09:43:05;98422.78;;;6.56;95.83
21760;BME280;11041;50.854;20.580;2023-12-29T09:45:37;98404.44;;;6.61;95.52
21760;BME280;11041;50.854;20.580;2023-12-29T09:48:11;98408.16;;;6.66;95.51
21760;BME280;11041;50.854;20.580;2023-12-29T09:50:43;98414.97;;;6.68;95.19
21760;BME280;11041;50.854;20.580;2023-12-29T09:53:12;98405.88;;;6.73;95.25
21760;BME280;11041;50.854;20.580;2023-12-29T09:55:41;98401.44;;;6.77;95.01
21760;BME280;11041;50.854;20.580;2023-12-29T09:58:12;98393.38;;;6.86;95.16
21760;BME280;11041;50.854;20.580;2023-12-29T10:00:45;98398.25;;;6.89;94.67
21760;BME280;11041;50.854;20.580;2023-12-29T10:03:13;98398.66;;;6.96;94.62
21760;BME280;11041;50.854;20.580;2023-12-29T10:05:41;98401.81;;;7.03;95.07
21760;BME280;11041;50.854;20.580;2023-12-29T10:08:15;98388.97;;;7.03;94.00
21760;BME280;11041;50.854;20.580;2023-12-29T10:10:46;98393.81;;;7.07;93.84
21760;BME280;11041;50.854;20.580;2023-12-29T10:13:19;98389.09;;;7.12;93.53
21760;BME280;11041;50.854;20.580;2023-12-29T10:19:30;98388.00;;;7.27;93.15
21760;BME280;11041;50.854;20.580;2023-12-29T10:22:23;98374.75;;;7.34;93.04
21760;BME280;11041;50.854;20.580;2023-12-29T10:24:55;98383.94;;;7.38;92.47
21760;BME280;11041;50.854;20.580;2023-12-29T10:27:25;98380.09;;;7.39;92.21
21760;BME280;11041;50.854;20.580;2023-12-29T10:29:52;98373.41;;;7.45;91.31
21760;BME280;11041;50.854;20.580;2023-12-29T10:32:19;98372.00;;;7.48;90.65
21760;BME280;11041;50.854;20.580;2023-12-29T10:34:48;98375.97;;;7.56;90.78
21760;BME280;11041;50.854;20.580;2023-12-29T10:37:26;98370.88;;;7.63;89.78
21760;BME280;11041;50.854;20.580;2023-12-29T10:39:57;98385.06;;;7.65;89.02
21760;BME280;11041;50.854;20.580;2023-12-29T10:42:24;98372.28;;;7.74;88.20
21760;BME280;11041;50.854;20.580;2023-12-29T10:45:08;98371.06;;;7.80;87.36
21760;BME280;11041;50.854;20.580;2023-12-29T10:47:43;98375.81;;;7.88;87.07
21760;BME280;11041;50.854;20.580;2023-12-29T10:50:11;98367.47;;;7.94;86.43
21760;BME280;11041;50.854;20.580;2023-12-29T10:52:38;98374.19;;;8.01;86.48
21760;BME280;11041;50.854;20.580;2023-12-29T10:55:13;98359.25;;;8.07;85.77
21760;BME280;11041;50.854;20.580;2023-12-29T10:57:42;98349.50;;;8.15;85.34
21760;BME280;11041;50.854;20.580;2023-12-29T11:00:09;98352.94;;;8.21;84.66
21760;BME280;11041;50.854;20.580;2023-12-29T11:02:39;98339.75;;;8.23;83.54
21760;BME280;11041;50.854;20.580;2023-12-29T11:05:08;98340.44;;;8.28;83.23
21760;BME280;11041;50.854;20.580;2023-12-29T11:07:40;98348.03;;;8.31;83.10
21760;BME280;11041;50.854;20.580;2023-12-29T11:10:08;98336.94;;;8.37;82.72
21760;BME280;11041;50.854;20.580;2023-12-29T11:12:37;98332.09;;;8.33;81.94
21760;BME280;11041;50.854;20.580;2023-12-29T11:15:07;98328.16;;;8.40;82.18
21760;BME280;11041;50.854;20.580;2023-12-29T11:17:35;98319.94;;;8.40;82.10
21760;BME280;11041;50.854;20.580;2023-12-29T11:20:04;98325.78;;;8.47;82.41
21760;BME280;11041;50.854;20.580;2023-12-29T11:22:32;98330.13;;;8.48;81.63
21760;BME280;11041;50.854;20.580;2023-12-29T11:25:00;98332.25;;;8.51;81.36
21760;BME280;11041;50.854;20.580;2023-12-29T11:27:31;98332.25;;;8.51;81.12
21760;BME280;11041;50.854;20.580;2023-12-29T11:30:03;98333.56;;;8.53;80.80
21760;BME280;11041;50.854;20.580;2023-12-29T11:33:14;98323.44;;;8.54;80.64
21760;BME280;11041;50.854;20.580;2023-12-29T11:38:56;98319.38;;;8.51;80.59
21760;BME280;11041;50.854;20.580;2023-12-29T11:42:02;98322.28;;;8.55;81.03
21760;BME280;11041;50.854;20.580;2023-12-29T11:44:38;98311.84;;;8.57;80.33
21760;BME280;11041;50.854;20.580;2023-12-29T11:47:42;98311.53;;;8.59;79.92
21760;BME280;11041;50.854;20.580;2023-12-29T11:50:09;98321.88;;;8.62;79.92
21760;BME280;11041;50.854;20.580;2023-12-29T11:52:38;98316.56;;;8.65;79.15
21760;BME280;11041;50.854;20.580;2023-12-29T11:55:10;98314.50;;;8.71;79.26
21760;BME280;11041;50.854;20.580;2023-12-29T11:57:38;98313.25;;;8.77;79.18
21760;BME280;11041;50.854;20.580;2023-12-29T12:00:08;98306.81;;;8.82;79.21
21760;BME280;11041;50.854;20.580;2023-12-29T12:02:36;98308.91;;;8.85;78.95
21760;BME280;11041;50.854;20.580;2023-12-29T12:05:05;98297.50;;;8.83;78.25
21760;BME280;11041;50.854;20.580;2023-12-29T12:12:48;98297.16;;;8.84;77.78
21760;BME280;11041;50.854;20.580;2023-12-29T12:17:59;98311.56;;;8.90;78.31
21760;BME280;11041;50.854;20.580;2023-12-29T12:20:26;98309.13;;;8.88;78.11
21760;BME280;11041;50.854;20.580;2023-12-29T12:22:59;98315.69;;;8.87;78.02
21760;BME280;11041;50.854;20.580;2023-12-29T12:25:28;98306.81;;;8.82;78.21
21760;BME280;11041;50.854;20.580;2023-12-29T12:27:56;98307.00;;;8.85;78.73
21760;BME280;11041;50.854;20.580;2023-12-29T12:30:24;98304.38;;;8.80;78.62
21760;BME280;11041;50.854;20.580;2023-12-29T12:33:02;98308.56;;;8.78;78.39
21760;BME280;11041;50.854;20.580;2023-12-29T12:35:32;98294.88;;;8.78;78.69
21760;BME280;11041;50.854;20.580;2023-12-29T12:40:36;98292.75;;;8.74;78.72
21760;BME280;11041;50.854;20.580;2023-12-29T12:43:05;98291.59;;;8.67;78.24
21760;BME280;11041;50.854;20.580;2023-12-29T12:45:47;98295.94;;;8.68;78.22
21760;BME280;11041;50.854;20.580;2023-12-29T12:48:45;98290.78;;;8.66;78.30
21760;BME280;11041;50.854;20.580;2023-12-29T12:51:17;98290.28;;;8.64;79.12
21760;BME280;11041;50.854;20.580;2023-12-29T12:53:45;98284.16;;;8.59;79.23
21760;BME280;11041;50.854;20.580;2023-12-29T12:56:16;98289.13;;;8.57;79.59
21760;BME280;11041;50.854;20.580;2023-12-29T12:58:46;98287.81;;;8.54;79.72
21760;BME280;11041;50.854;20.580;2023-12-29T13:01:14;98291.16;;;8.51;80.00
21760;BME280;11041;50.854;20.580;2023-12-29T13:03:40;98290.81;;;8.44;79.71
21760;BME280;11041;50.854;20.580;2023-12-29T13:06:07;98287.56;;;8.42;80.26
21760;BME280;11041;50.854;20.580;2023-12-29T13:08:34;98279.34;;;8.42;80.13
21760;BME280;11041;50.854;20.580;2023-12-29T13:11:01;98283.97;;;8.32;80.12
21760;BME280;11041;50.854;20.580;2023-12-29T13:13:43;98278.28;;;8.29;80.17
21760;BME280;11041;50.854;20.580;2023-12-29T13:16:09;98278.28;;;8.29;80.45
21760;BME280;11041;50.854;20.580;2023-12-29T13:18:36;98281.03;;;8.29;80.44
21760;BME280;11041;50.854;20.580;2023-12-29T13:21:03;98286.50;;;8.29;80.77
21760;BME280;11041;50.854;20.580;2023-12-29T13:23:30;98282.75;;;8.25;80.81
21760;BME280;11041;50.854;20.580;2023-12-29T13:26:05;98281.44;;;8.22;80.95